Time;durP1;ratioP1;P1;durP2;ratioP2;P2;SDS_P1;SDS_P2;PMS_P1;PMS_P2;Temp;Humidity;BMP_temperature;BMP_pressure;BME280_temperature;BME280_humidity;BME280_pressure;Samples;Min_cycle;Max_cycle;Signal;HPM_P1;HPM_P2
2023/05/31 00:01:39;;;;;;;3.67;1.20;;;13.00;99.90;;;;;;5073243;28;20175;-80
2023/05/31 00:04:04;;;;;;;3.80;1.30;;;13.00;1.00;;;;;;5073058;28;20175;-79
2023/05/31 00:06:30;;;;;;;1.37;0.53;;;12.90;1.00;;;;;;5073156;28;20171;-80
2023/05/31 00:08:55;;;;;;;2.83;1.63;;;12.90;1.00;;;;;;5073077;28;20667;-79
2023/05/31 00:11:22;;;;;;;5.37;1.13;;;12.90;99.90;;;;;;5073124;28;20179;-80
2023/05/31 00:13:47;;;;;;;4.13;0.73;;;12.90;99.90;;;;;;5071999;28;20222;-78
2023/05/31 00:16:13;;;;;;;2.60;0.80;;;12.90;99.90;;;;;;5073036;28;20896;-78
2023/05/31 00:18:38;;;;;;;5.13;1.10;;;12.90;99.90;;;;;;5072981;28;20200;-79
2023/05/31 00:21:04;;;;;;;3.00;0.70;;;12.80;99.90;;;;;;5073097;28;20788;-79
2023/05/31 00:23:30;;;;;;;3.83;1.10;;;12.80;99.90;;;;;;5072904;28;20174;-79
2023/05/31 00:25:55;;;;;;;4.50;1.30;;;12.70;1.00;;;;;;5072953;28;20185;-78
2023/05/31 00:28:21;;;;;;;2.67;1.40;;;12.70;1.00;;;;;;5072523;28;20658;-79
2023/05/31 00:30:46;;;;;;;3.67;1.00;;;12.70;1.00;;;;;;5054959;28;20171;-79
2023/05/31 00:33:12;;;;;;;2.93;0.83;;;12.70;1.00;;;;;;5072847;28;20183;-78
2023/05/31 00:35:37;;;;;;;2.00;0.73;;;12.70;1.00;;;;;;5072628;28;20502;-79
2023/05/31 00:38:05;;;;;;;1.70;0.43;;;12.70;1.00;;;;;;5072845;28;20174;-78
2023/05/31 00:40:30;;;;;;;2.87;1.43;;;12.70;1.00;;;;;;5072871;28;20255;-84
2023/05/31 00:42:56;;;;;;;5.10;1.10;;;12.60;1.00;;;;;;5054621;28;20495;-84
2023/05/31 00:45:22;;;;;;;3.33;1.03;;;12.60;1.00;;;;;;5072515;28;20221;-81
2023/05/31 00:47:47;;;;;;;6.50;1.87;;;12.60;1.00;;;;;;5072540;28;20174;-82
2023/05/31 00:50:13;;;;;;;2.80;0.97;;;12.60;1.00;;;;;;5054729;28;20276;-83
2023/05/31 00:52:40;;;;;;;2.70;1.53;;;12.60;12.40;;;;;;5072695;28;20157;-81
2023/05/31 00:55:06;;;;;;;4.33;1.03;;;12.50;17.70;;;;;;5072693;28;20482;-82
2023/05/31 00:57:31;;;;;;;2.73;1.00;;;12.50;6.50;;;;;;5072304;28;20423;-80
2023/05/31 00:59:57;;;;;;;2.97;0.90;;;12.50;12.20;;;;;;5072661;28;20921;-82
2023/05/31 01:02:22;;;;;;;6.07;2.10;;;12.40;15.90;;;;;;5072641;28;20193;-82
2023/05/31 01:04:49;;;;;;;2.83;1.20;;;12.40;30.90;;;;;;5072589;28;20166;-80
2023/05/31 01:07:14;;;;;;;3.10;1.27;;;12.30;99.50;;;;;;5072560;28;20209;-80
2023/05/31 01:09:42;;;;;;;2.60;1.00;;;12.30;99.90;;;;;;5072494;28;20499;-80
2023/05/31 01:12:26;;;;;;;3.23;0.60;;;12.30;99.90;;;;;;5072174;28;20406;-80
2023/05/31 01:14:54;;;;;;;2.80;1.00;;;12.20;99.90;;;;;;5072479;28;20421;-81
2023/05/31 01:17:24;;;;;;;3.80;2.50;;;12.20;99.90;;;;;;5072354;28;20469;-80
2023/05/31 01:19:54;;;;;;;5.57;1.30;;;12.20;99.90;;;;;;5054376;28;20422;-81
2023/05/31 01:22:56;;;;;;;3.40;1.20;;;12.10;99.90;;;;;;5072368;28;21085;-81
2023/05/31 01:25:27;;;;;;;2.87;0.90;;;12.10;99.90;;;;;;5057412;28;20974;-80
2023/05/31 01:27:55;;;;;;;3.73;1.27;;;12.10;99.90;;;;;;5058039;28;20831;-79
2023/05/31 01:30:22;;;;;;;3.10;1.60;;;12.00;99.90;;;;;;5075974;28;20792;-83
2023/05/31 01:32:49;;;;;;;2.23;1.50;;;12.00;99.90;;;;;;5076071;28;20412;-80
2023/05/31 01:35:14;;;;;;;5.47;1.23;;;12.00;99.90;;;;;;5075904;28;20424;-82
2023/05/31 01:37:40;;;;;;;4.37;1.17;;;11.90;99.90;;;;;;5075864;28;20413;-80
2023/05/31 01:40:07;;;;;;;3.17;1.20;;;11.90;99.90;;;;;;5075930;28;20694;-83
2023/05/31 01:42:32;;;;;;;2.73;1.00;;;11.80;99.90;;;;;;5075515;28;20163;-81
2023/05/31 01:44:59;;;;;;;2.10;0.70;;;11.80;99.90;;;;;;5075580;28;20461;-82
2023/05/31 01:47:25;;;;;;;3.13;1.20;;;11.80;99.90;;;;;;5075727;28;20204;-83
2023/05/31 01:49:52;;;;;;;1.73;1.27;;;11.80;99.90;;;;;;5075611;28;20555;-82
2023/05/31 01:52:19;;;;;;;3.47;1.07;;;11.80;99.90;;;;;;5075635;28;20759;-82
2023/05/31 01:54:45;;;;;;;3.97;1.23;;;11.80;99.90;;;;;;5075708;28;20515;-82
2023/05/31 01:57:11;;;;;;;2.40;1.03;;;11.80;1.00;;;;;;5075254;28;20507;-82
2023/05/31 01:59:39;;;;;;;2.60;1.40;;;11.80;1.00;;;;;;5075545;28;20180;-83
2023/05/31 02:02:06;;;;;;;2.87;1.07;;;11.70;1.00;;;;;;5075437;28;20412;-82
2023/05/31 02:04:31;;;;;;;2.27;1.20;;;11.70;1.00;;;;;;5083700;28;20414;-82
2023/05/31 02:06:57;;;;;;;2.57;1.50;;;11.70;1.00;;;;;;5095665;28;20425;-82
2023/05/31 02:09:23;;;;;;;7.67;1.30;;;11.70;1.00;;;;;;5095610;28;20294;-82
2023/05/31 02:11:49;;;;;;;4.53;2.40;;;11.60;1.00;;;;;;5095136;28;20513;-82
2023/05/31 02:14:15;;;;;;;2.67;0.63;;;11.60;1.00;;;;;;5095538;28;20263;-81
2023/05/31 02:16:40;;;;;;;2.53;0.87;;;11.60;1.00;;;;;;5095357;28;20177;-80
2023/05/31 02:19:06;;;;;;;1.93;0.90;;;11.60;1.00;;;;;;5095454;28;20471;-82
2023/05/31 02:21:37;;;;;;;2.53;1.03;;;11.60;1.00;;;;;;5095316;28;20180;-82
2023/05/31 02:24:03;;;;;;;2.73;1.13;;;11.60;1.00;;;;;;5095276;28;20181;-82
2023/05/31 02:26:28;;;;;;;2.40;0.83;;;11.60;1.00;;;;;;5094912;28;20407;-81
2023/05/31 02:28:54;;;;;;;3.57;1.40;;;11.60;1.00;;;;;;5095141;28;20211;-81
2023/05/31 02:31:19;;;;;;;5.00;1.03;;;11.60;1.00;;;;;;5095066;28;20176;-81
2023/05/31 02:33:45;;;;;;;4.30;1.10;;;11.60;1.00;;;;;;5095045;28;20220;-81
2023/05/31 02:36:11;;;;;;;5.70;1.90;;;11.50;1.00;;;;;;5094446;28;20230;-81
2023/05/31 02:38:37;;;;;;;2.87;1.53;;;11.50;1.00;;;;;;5095058;28;20169;-81
2023/05/31 02:41:03;;;;;;;4.20;2.53;;;11.50;1.00;;;;;;5095018;28;20955;-82
2023/05/31 02:43:30;;;;;;;4.43;1.23;;;11.50;1.00;;;;;;5094343;28;20457;-82
2023/05/31 02:45:56;;;;;;;5.10;1.40;;;11.50;1.00;;;;;;5094835;28;20172;-83
2023/05/31 02:48:21;;;;;;;4.63;1.40;;;11.40;1.00;;;;;;5094742;28;20988;-83
2023/05/31 02:50:47;;;;;;;3.07;1.20;;;11.30;99.90;;;;;;5094776;28;20227;-82
2023/05/31 02:53:12;;;;;;;3.70;1.43;;;11.20;99.90;;;;;;5076633;28;20252;-83
2023/05/31 02:55:38;;;;;;;3.00;1.70;;;11.00;99.90;;;;;;5094737;28;20611;-83
2023/05/31 02:58:03;;;;;;;2.23;1.00;;;10.90;1.00;;;;;;5094320;28;20172;-83
2023/05/31 03:00:29;;;;;;;5.57;2.67;;;10.80;1.00;;;;;;5094558;28;20175;-82
2023/05/31 03:02:54;;;;;;;2.53;1.47;;;10.70;1.00;;;;;;5094569;28;20175;-82
2023/05/31 03:05:20;;;;;;;3.33;1.77;;;10.60;1.00;;;;;;5094527;28;20177;-83
2023/05/31 03:07:46;;;;;;;2.77;1.10;;;10.60;1.00;;;;;;5094475;28;20183;-83
2023/05/31 03:10:12;;;;;;;3.87;1.83;;;10.50;1.00;;;;;;5094418;28;20427;-82
2023/05/31 03:12:37;;;;;;;3.27;1.80;;;10.40;1.00;;;;;;5075957;28;20216;-83
2023/05/31 03:15:04;;;;;;;5.13;1.80;;;10.40;1.00;;;;;;5094268;28;20178;-82
2023/05/31 03:17:30;;;;;;;9.70;2.67;;;10.30;1.00;;;;;;5094173;28;20280;-82
2023/05/31 03:19:56;;;;;;;8.30;2.50;;;10.30;1.00;;;;;;5094143;28;20985;-82
2023/05/31 03:22:23;;;;;;;3.40;1.27;;;10.30;1.00;;;;;;5076026;28;20460;-81
2023/05/31 03:24:48;;;;;;;5.07;1.50;;;10.20;1.00;;;;;;5094162;28;20173;-83
2023/05/31 03:27:14;;;;;;;5.20;1.90;;;10.20;1.00;;;;;;5093742;28;20406;-82
2023/05/31 03:29:41;;;;;;;4.50;1.57;;;10.20;1.00;;;;;;5093938;28;20215;-81
2023/05/31 03:32:07;;;;;;;4.40;2.20;;;10.20;1.00;;;;;;5093952;28;20163;-82
2023/05/31 03:34:33;;;;;;;4.30;1.80;;;10.20;1.00;;;;;;5093935;28;20549;-80
2023/05/31 03:36:59;;;;;;;3.80;1.40;;;10.20;1.00;;;;;;5093946;28;20166;-80
2023/05/31 03:39:24;;;;;;;4.40;2.07;;;10.20;1.00;;;;;;5093975;28;20226;-83
2023/05/31 03:41:50;;;;;;;4.70;2.40;;;10.30;1.00;;;;;;5093000;28;20405;-83
2023/05/31 03:44:15;;;;;;;2.60;1.70;;;10.30;1.00;;;;;;5093529;28;20466;-84
2023/05/31 03:46:41;;;;;;;5.10;1.40;;;10.40;1.00;;;;;;5093709;28;20681;-83
2023/05/31 03:49:07;;;;;;;3.53;1.50;;;10.40;1.00;;;;;;5092777;28;20675;-79
2023/05/31 03:51:32;;;;;;;3.57;1.27;;;10.40;1.00;;;;;;5073447;28;20739;-79
2023/05/31 03:53:58;;;;;;;6.13;2.37;;;10.40;1.00;;;;;;5073309;28;20508;-82
2023/05/31 03:56:24;;;;;;;3.87;1.67;;;10.40;1.00;;;;;;5055128;28;20177;-84
2023/05/31 03:58:50;;;;;;;2.73;1.60;;;10.50;1.00;;;;;;5073246;28;20720;-83
2023/05/31 04:01:17;;;;;;;5.17;2.67;;;10.50;1.00;;;;;;5073139;28;20183;-83
2023/05/31 04:03:43;;;;;;;5.10;2.30;;;10.50;1.00;;;;;;5073253;28;20440;-82
2023/05/31 04:06:08;;;;;;;3.53;1.60;;;10.50;1.00;;;;;;5055181;28;20942;-84
2023/05/31 04:08:35;;;;;;;3.10;1.70;;;10.50;1.00;;;;;;5073176;28;20291;-81
2023/05/31 04:11:00;;;;;;;3.63;2.00;;;10.50;7.60;;;;;;5073167;28;20528;-84
2023/05/31 04:13:26;;;;;;;4.00;1.20;;;10.60;15.40;;;;;;5072723;28;20408;-84
2023/05/31 04:15:51;;;;;;;5.27;1.47;;;10.60;20.40;;;;;;5055072;28;20176;-81
2023/05/31 04:18:17;;;;;;;3.10;2.10;;;10.70;20.40;;;;;;5072962;28;20169;-82
2023/05/31 04:20:42;;;;;;;6.00;1.53;;;10.70;25.20;;;;;;5073094;28;20187;-85
2023/05/31 04:23:08;;;;;;;2.77;1.77;;;10.70;23.00;;;;;;5072942;28;20184;-82
2023/05/31 04:25:33;;;;;;;5.50;2.10;;;10.80;19.50;;;;;;5069717;28;20588;-83
2023/05/31 04:27:59;;;;;;;2.77;1.50;;;10.80;18.20;;;;;;5066623;28;20210;-85
2023/05/31 04:30:26;;;;;;;3.37;1.40;;;10.80;28.90;;;;;;5066839;28;20264;-84
2023/05/31 04:32:52;;;;;;;4.57;2.27;;;10.80;29.40;;;;;;5061720;28;20172;-84
2023/05/31 04:35:17;;;;;;;6.07;1.97;;;10.80;29.20;;;;;;5061430;28;20420;-83
2023/05/31 04:37:43;;;;;;;4.97;2.30;;;10.80;37.70;;;;;;5067049;28;20843;-82
2023/05/31 04:40:09;;;;;;;9.20;2.53;;;10.90;43.70;;;;;;5072898;28;20173;-83
2023/05/31 04:42:36;;;;;;;7.30;2.00;;;10.90;47.00;;;;;;5072447;28;20411;-83
2023/05/31 04:45:04;;;;;;;4.50;1.67;;;10.90;49.30;;;;;;5072658;28;20217;-83
2023/05/31 04:47:33;;;;;;;4.70;2.37;;;11.00;57.80;;;;;;5055403;28;20784;-83
2023/05/31 04:49:59;;;;;;;3.83;2.13;;;11.00;73.80;;;;;;5042631;28;20880;-80
2023/05/31 04:52:29;;;;;;;3.90;1.60;;;11.10;90.50;;;;;;5062628;28;20415;-83
2023/05/31 04:54:55;;;;;;;5.53;2.10;;;11.10;93.60;;;;;;5060530;28;20426;-83
2023/05/31 04:57:21;;;;;;;5.93;2.13;;;11.20;99.90;;;;;;5062219;28;20439;-82
2023/05/31 04:59:46;;;;;;;2.73;1.00;;;11.30;99.90;;;;;;5055521;28;20416;-82
2023/05/31 05:02:12;;;;;;;5.97;2.07;;;11.40;99.90;;;;;;5056608;28;20408;-80
2023/05/31 05:04:37;;;;;;;3.30;1.87;;;11.40;99.90;;;;;;5055454;28;20254;-81
2023/05/31 05:07:03;;;;;;;5.40;2.00;;;11.50;99.90;;;;;;5056435;28;20237;-80
2023/05/31 05:09:28;;;;;;;5.90;2.23;;;11.60;99.90;;;;;;5056279;28;20217;-79
2023/05/31 05:11:55;;;;;;;4.90;2.17;;;11.70;99.90;;;;;;5056077;28;20252;-80
2023/05/31 05:14:21;;;;;;;3.53;1.63;;;11.70;99.90;;;;;;5056415;28;20182;-79
2023/05/31 05:16:46;;;;;;;5.20;2.97;;;11.80;99.90;;;;;;5056297;28;20437;-78
2023/05/31 05:19:12;;;;;;;5.27;2.60;;;11.90;99.90;;;;;;5056252;28;20181;-79
2023/05/31 05:21:37;;;;;;;3.83;1.97;;;12.00;99.90;;;;;;5056272;28;20175;-79
2023/05/31 05:24:03;;;;;;;2.50;1.83;;;12.10;99.90;;;;;;5056317;28;20167;-79
2023/05/31 05:26:28;;;;;;;4.80;2.70;;;12.20;99.90;;;;;;5055677;28;20168;-79
2023/05/31 05:28:54;;;;;;;5.37;2.90;;;12.40;99.90;;;;;;5055884;28;20598;-78
2023/05/31 05:31:19;;;;;;;4.70;2.60;;;12.50;99.90;;;;;;5056078;28;20161;-79
2023/05/31 05:33:45;;;;;;;4.90;3.00;;;12.70;99.90;;;;;;5056046;28;20179;-79
2023/05/31 05:36:10;;;;;;;4.63;2.03;;;13.00;99.90;;;;;;5056009;28;20172;-79
2023/05/31 05:38:36;;;;;;;4.77;2.77;;;13.10;99.90;;;;;;5055957;28;20580;-80
2023/05/31 05:41:01;;;;;;;5.67;3.40;;;13.30;99.90;;;;;;5055465;28;20211;-79
2023/05/31 05:43:29;;;;;;;5.30;1.63;;;13.60;99.90;;;;;;5055664;28;20241;-79
2023/05/31 05:45:54;;;;;;;6.10;2.27;;;13.80;99.90;;;;;;5055756;28;20222;-79
2023/05/31 05:48:20;;;;;;;7.70;3.07;;;14.00;99.90;;;;;;5055664;28;20487;-79
2023/05/31 05:50:45;;;;;;;9.47;3.60;;;14.30;99.90;;;;;;5055730;28;20262;-79
2023/05/31 05:53:11;;;;;;;6.37;2.67;;;14.50;99.90;;;;;;5055685;28;20647;-80
2023/05/31 05:55:37;;;;;;;4.13;2.80;;;14.70;99.90;;;;;;5055592;28;20219;-79
2023/05/31 05:58:02;;;;;;;5.80;3.27;;;14.90;82.90;;;;;;5055105;28;20167;-80
2023/05/31 06:00:28;;;;;;;4.63;2.90;;;15.10;1.00;;;;;;5055512;28;20997;-80
2023/05/31 06:02:54;;;;;;;5.10;2.17;;;15.40;1.00;;;;;;5055503;28;20305;-80
2023/05/31 06:05:25;;;;;;;9.97;3.20;;;15.60;1.00;;;;;;5055135;28;20219;-89
2023/05/31 06:07:51;;;;;;;4.17;2.20;;;15.80;1.00;;;;;;5055511;28;20507;-89
2023/05/31 06:10:17;;;;;;;4.40;2.77;;;16.00;1.00;;;;;;5053981;28;20444;-79
2023/05/31 06:12:42;;;;;;;4.93;2.93;;;16.10;1.00;;;;;;5054886;28;20427;-79
2023/05/31 06:15:08;;;;;;;5.53;2.13;;;16.30;1.00;;;;;;5037465;28;20233;-79
2023/05/31 06:17:34;;;;;;;5.97;2.80;;;16.40;99.90;;;;;;5037442;28;20177;-79
2023/05/31 06:20:00;;;;;;;5.57;2.43;;;16.70;99.90;;;;;;5045477;28;20480;-81
2023/05/31 06:22:26;;;;;;;6.67;2.97;;;16.80;99.90;;;;;;5046213;28;20174;-81
2023/05/31 06:24:53;;;;;;;6.10;2.43;;;16.90;99.90;;;;;;5046613;28;20419;-79
2023/05/31 06:27:19;;;;;;;3.70;2.43;;;17.10;1.00;;;;;;5054774;28;20165;-79
2023/05/31 06:29:47;;;;;;;4.70;2.30;;;17.30;99.90;;;;;;5068771;28;20477;-79
2023/05/31 06:32:13;;;;;;;4.73;2.33;;;17.40;1.00;;;;;;5074972;28;20259;-81
2023/05/31 06:34:38;;;;;;;4.30;2.30;;;17.60;1.00;;;;;;5074824;28;20985;-82
2023/05/31 06:37:04;;;;;;;4.47;2.40;;;17.80;99.90;;;;;;5074826;28;20174;-79
2023/05/31 06:39:30;;;;;;;4.93;2.30;;;18.00;1.00;;;;;;5075046;28;20520;-80
2023/05/31 06:41:56;;;;;;;6.47;1.90;;;18.40;1.00;;;;;;5074445;28;20411;-79
2023/05/31 06:44:22;;;;;;;3.50;1.60;;;18.60;99.90;;;;;;5074491;28;20484;-78
2023/05/31 06:46:51;;;;;;;5.90;1.47;;;18.80;7.50;;;;;;5074774;28;20179;-78
2023/05/31 06:49:16;;;;;;;5.93;2.03;;;19.20;23.40;;;;;;5074533;28;20466;-80
2023/05/31 06:51:41;;;;;;;2.73;0.80;;;19.50;99.90;;;;;;5056643;28;20953;-80
2023/05/31 06:54:07;;;;;;;3.23;0.50;;;19.80;1.00;;;;;;5056531;28;20235;-80
2023/05/31 06:56:33;;;;;;;2.87;1.33;;;20.20;99.90;;;;;;5074126;28;20223;-80
2023/05/31 06:58:58;;;;;;;3.20;1.33;;;20.50;99.90;;;;;;5074399;28;20435;-82
2023/05/31 07:01:24;;;;;;;4.07;1.37;;;21.00;99.90;;;;;;5074346;28;20171;-80
2023/05/31 07:03:50;;;;;;;5.70;1.40;;;21.40;73.70;;;;;;5074459;28;20639;-81
2023/05/31 07:06:16;;;;;;;1.40;0.33;;;21.90;96.20;;;;;;5074289;28;20420;-82
2023/05/31 07:08:41;;;;;;;2.20;0.57;;;22.40;21.10;;;;;;5074107;28;20242;-85
2023/05/31 07:11:10;;;;;;;3.83;3.20;;;22.90;1.00;;;;;;5073803;28;20236;-80
2023/05/31 07:13:35;;;;;;;2.60;0.67;;;23.10;1.00;;;;;;5056226;28;20176;-80
2023/05/31 07:16:00;;;;;;;2.37;0.90;;;23.50;1.00;;;;;;5074104;28;20415;-80
2023/05/31 07:18:26;;;;;;;2.43;0.70;;;23.70;1.00;;;;;;5074159;28;20173;-78
2023/05/31 07:20:56;;;;;;;3.60;1.33;;;24.00;1.00;;;;;;5073792;28;20165;-79
2023/05/31 07:23:23;;;;;;;3.07;1.30;;;24.30;1.00;;;;;;5073620;28;20180;-78
2023/05/31 07:25:48;;;;;;;2.70;1.20;;;24.30;1.00;;;;;;5073463;28;20911;-78
2023/05/31 07:28:13;;;;;;;3.50;1.27;;;24.50;1.00;;;;;;5073796;28;20605;-78
2023/05/31 07:30:39;;;;;;;2.23;1.27;;;24.70;1.00;;;;;;5073816;28;20629;-78
2023/05/31 07:33:05;;;;;;;3.03;1.10;;;25.00;1.00;;;;;;5073699;28;20196;-78
2023/05/31 07:35:30;;;;;;;2.20;1.00;;;25.30;1.00;;;;;;5055834;28;20176;-78
2023/05/31 07:37:56;;;;;;;2.67;0.43;;;25.60;1.00;;;;;;5073616;28;20747;-77
2023/05/31 07:40:21;;;;;;;1.97;1.37;;;25.90;1.00;;;;;;5073606;28;20192;-78
2023/05/31 07:42:47;;;;;;;3.13;0.60;;;26.10;1.00;;;;;;5073222;28;20177;-78
2023/05/31 07:45:12;;;;;;;3.83;1.20;;;26.40;1.00;;;;;;5073368;28;20252;-78
2023/05/31 07:47:38;;;;;;;3.60;0.83;;;26.80;1.00;;;;;;5073570;28;20165;-78
2023/05/31 07:50:04;;;;;;;2.70;0.73;;;27.10;1.00;;;;;;5073367;28;20209;-77
2023/05/31 07:52:30;;;;;;;2.10;0.70;;;27.20;1.00;;;;;;5073394;28;20165;-78
2023/05/31 07:54:55;;;;;;;3.23;1.13;;;27.40;1.00;;;;;;5073326;28;20514;-78
2023/05/31 07:57:21;;;;;;;2.60;0.97;;;27.60;1.00;;;;;;5072983;28;20172;-78
2023/05/31 07:59:47;;;;;;;3.90;1.47;;;27.50;1.00;;;;;;5073302;28;20248;-79
2023/05/31 08:02:12;;;;;;;7.00;0.90;;;27.70;1.00;;;;;;5073267;28;20180;-87
2023/05/31 08:04:38;;;;;;;2.60;0.57;;;27.70;1.00;;;;;;5073165;28;20416;-77
2023/05/31 08:07:04;;;;;;;2.57;1.20;;;27.60;1.00;;;;;;5073153;28;20208;-79
2023/05/31 08:09:30;;;;;;;2.33;1.23;;;27.60;1.00;;;;;;5073096;28;20665;-77
2023/05/31 08:11:55;;;;;;;13.43;3.20;;;27.60;1.00;;;;;;5072794;28;20211;-77
2023/05/31 08:14:21;;;;;;;3.23;1.07;;;27.70;1.00;;;;;;5073075;28;20899;-77
2023/05/31 08:16:49;;;;;;;3.53;1.67;;;28.00;1.00;;;;;;5073124;28;20173;-77
2023/05/31 08:19:14;;;;;;;4.20;1.27;;;28.10;1.00;;;;;;5073279;28;20537;-78
2023/05/31 08:21:40;;;;;;;5.00;1.20;;;28.20;1.00;;;;;;5055071;28;20426;-78
2023/05/31 08:24:06;;;;;;;4.23;1.20;;;28.40;1.00;;;;;;5072988;28;20259;-77
2023/05/31 08:26:32;;;;;;;3.73;1.20;;;28.60;1.00;;;;;;5072660;28;20217;-76
2023/05/31 08:28:58;;;;;;;2.77;1.20;;;28.60;1.00;;;;;;5072931;28;20317;-77
2023/05/31 08:31:23;;;;;;;2.97;0.90;;;28.70;1.00;;;;;;5073044;28;20471;-76
2023/05/31 08:33:57;;;;;;;2.50;1.30;;;28.80;1.00;;;;;;5072333;28;20165;-79
2023/05/31 08:36:26;;;;;;;3.33;0.83;;;29.10;1.00;;;;;;5072941;28;20625;-77
2023/05/31 08:38:52;;;;;;;4.10;1.57;;;29.30;1.00;;;;;;5072921;28;20407;-82
2023/05/31 08:41:18;;;;;;;1.80;1.07;;;29.60;1.00;;;;;;5072444;28;20421;-77
2023/05/31 08:43:45;;;;;;;2.80;1.40;;;29.70;1.00;;;;;;5072656;28;20228;-78
2023/05/31 08:46:11;;;;;;;4.13;1.53;;;30.00;1.00;;;;;;5072419;28;20825;-81
2023/05/31 08:48:42;;;;;;;5.50;1.27;;;30.20;1.00;;;;;;5062437;28;20461;-76
2023/05/31 08:51:08;;;;;;;2.47;1.33;;;30.30;1.00;;;;;;5065686;28;20168;-78
2023/05/31 08:53:34;;;;;;;3.00;1.70;;;30.50;1.00;;;;;;5067110;28;20418;-77
2023/05/31 08:56:01;;;;;;;2.97;1.33;;;30.50;1.00;;;;;;5054547;28;20427;-81
2023/05/31 08:58:28;;;;;;;2.43;1.23;;;30.70;1.00;;;;;;5065417;28;20418;-79
2023/05/31 09:00:54;;;;;;;3.73;0.90;;;30.90;1.00;;;;;;5071530;28;20416;-80
2023/05/31 09:03:22;;;;;;;2.60;2.20;;;31.10;1.00;;;;;;5054058;28;20962;-86
2023/05/31 09:05:47;;;;;;;5.23;2.10;;;31.30;1.00;;;;;;5071958;28;20407;-80
2023/05/31 09:08:13;;;;;;;5.07;1.17;;;31.40;1.00;;;;;;5053378;28;20538;-79
2023/05/31 09:10:40;;;;;;;3.90;1.33;;;31.50;1.00;;;;;;5071436;28;20216;-90
2023/05/31 09:13:06;;;;;;;2.67;0.67;;;31.80;1.00;;;;;;5056533;28;20177;-85
2023/05/31 09:15:34;;;;;;;1.97;0.80;;;31.90;1.00;;;;;;5067468;28;20431;-78
2023/05/31 09:18:12;;;;;;;2.73;1.40;;;31.90;1.00;;;;;;5072095;28;20430;-80
2023/05/31 09:20:38;;;;;;;3.30;1.40;;;32.00;1.00;;;;;;5072118;28;20426;-78
2023/05/31 09:23:03;;;;;;;2.10;0.93;;;31.90;1.00;;;;;;5054070;28;20415;-80
2023/05/31 09:25:46;;;;;;;2.07;1.03;;;32.10;1.00;;;;;;5071769;28;20169;-81
2023/05/31 09:28:12;;;;;;;1.73;0.83;;;32.10;1.00;;;;;;5072001;28;20752;-80
2023/05/31 09:30:37;;;;;;;5.33;0.90;;;32.30;1.00;;;;;;5072022;28;21365;-83
2023/05/31 09:33:03;;;;;;;3.87;0.87;;;32.50;1.00;;;;;;5071910;28;20407;-79
2023/05/31 09:35:29;;;;;;;1.37;0.60;;;32.80;1.00;;;;;;5072142;28;20185;-92
2023/05/31 09:37:56;;;;;;;2.17;0.60;;;33.10;1.00;;;;;;5071817;28;20656;-87
2023/05/31 09:40:26;;;;;;;1.40;0.30;;;33.30;1.00;;;;;;5071622;28;20259;-80
2023/05/31 09:42:53;;;;;;;4.73;0.60;;;33.40;1.00;;;;;;5071901;28;20441;-79
2023/05/31 09:45:20;;;;;;;4.23;0.70;;;33.50;1.00;;;;;;5072996;28;20474;-78
2023/05/31 09:47:45;;;;;;;1.40;0.40;;;33.40;1.00;;;;;;5075313;28;20453;-81
2023/05/31 09:50:22;;;;;;;2.03;0.80;;;33.20;1.00;;;;;;5075238;28;20471;-80
2023/05/31 09:52:54;;;;;;;2.40;0.40;;;33.50;1.00;;;;;;5075313;28;20192;-78
2023/05/31 09:55:20;;;;;;;3.50;0.80;;;33.50;1.00;;;;;;5074928;28;20464;-78
2023/05/31 09:57:46;;;;;;;4.03;1.63;;;33.40;1.00;;;;;;5075225;28;20439;-79
2023/05/31 10:00:18;;;;;;;4.37;0.93;;;33.50;1.00;;;;;;5075128;28;20239;-79
2023/05/31 10:02:52;;;;;;;1.63;0.50;;;33.70;1.00;;;;;;5074588;28;20827;-89
2023/05/31 10:05:18;;;;;;;4.43;0.77;;;33.70;1.00;;;;;;5075237;28;20450;-91
2023/05/31 10:07:47;;;;;;;0.97;0.60;;;33.80;1.00;;;;;;5075095;28;20508;-88
2023/05/31 10:10:13;;;;;;;3.90;0.60;;;33.70;1.00;;;;;;5074545;28;20467;-81
2023/05/31 10:12:51;;;;;;;2.30;0.70;;;33.90;1.00;;;;;;5074794;28;20411;-83
2023/05/31 10:15:21;;;;;;;1.67;0.63;;;33.90;1.00;;;;;;5074687;28;20497;-79
2023/05/31 10:18:02;;;;;;;3.40;0.77;;;33.90;1.00;;;;;;5056931;28;20416;-79
2023/05/31 10:20:43;;;;;;;2.53;0.70;;;33.80;1.00;;;;;;5074654;28;20421;-79
2023/05/31 10:23:19;;;;;;;3.70;0.87;;;33.70;1.00;;;;;;5074825;28;20506;-78
2023/05/31 10:25:56;;;;;;;4.63;1.20;;;34.00;1.00;;;;;;5074338;28;20407;-79
2023/05/31 10:28:26;;;;;;;3.07;0.80;;;34.20;1.00;;;;;;5073847;28;20451;-82
2023/05/31 10:30:52;;;;;;;3.10;1.10;;;34.20;1.00;;;;;;5054284;28;20420;-81
2023/05/31 10:33:20;;;;;;;3.77;1.20;;;34.10;1.00;;;;;;5063636;28;20406;-78
2023/05/31 10:35:46;;;;;;;4.20;0.87;;;34.40;1.00;;;;;;5063059;28;20176;-82
2023/05/31 10:38:13;;;;;;;1.80;0.73;;;34.60;1.00;;;;;;5064607;28;20418;-80
2023/05/31 10:40:50;;;;;;;3.40;0.97;;;34.90;1.00;;;;;;5062703;28;20166;-85
2023/05/31 10:43:35;;;;;;;2.70;0.90;;;35.00;1.00;;;;;;5063669;28;20427;-84
2023/05/31 10:46:03;;;;;;;2.63;1.43;;;35.00;1.00;;;;;;5064566;28;20966;-83
2023/05/31 10:48:46;;;;;;;2.83;0.90;;;34.90;1.00;;;;;;5044944;28;20518;-79
2023/05/31 10:51:12;;;;;;;4.43;1.00;;;35.00;1.00;;;;;;5066421;28;20412;-86
2023/05/31 10:53:39;;;;;;;3.30;1.13;;;35.00;1.00;;;;;;5067494;28;20412;-92
2023/05/31 10:56:07;;;;;;;3.80;1.00;;;35.10;1.00;;;;;;5064262;28;20632;-79
2023/05/31 10:58:43;;;;;;;2.07;0.93;;;35.10;1.00;;;;;;5062870;28;20408;-86
2023/05/31 11:01:18;;;;;;;3.03;1.20;;;35.30;1.00;;;;;;5068412;28;20446;-80
2023/05/31 11:03:51;;;;;;;3.87;0.70;;;35.60;1.00;;;;;;5054315;28;20415;-81
2023/05/31 11:06:22;;;;;;;3.60;1.20;;;35.80;1.00;;;;;;5054000;28;20408;-80
2023/05/31 11:09:05;;;;;;;3.00;1.10;;;35.80;1.00;;;;;;5053993;28;20563;-80
2023/05/31 11:11:31;;;;;;;2.40;1.13;;;36.00;1.00;;;;;;5053441;28;20509;-79
2023/05/31 11:14:03;;;;;;;3.33;0.90;;;35.80;1.00;;;;;;5053728;28;20444;-79
2023/05/31 11:16:33;;;;;;;1.77;1.20;;;35.70;1.00;;;;;;5091546;28;20918;-78
2023/05/31 11:19:07;;;;;;;2.10;1.00;;;35.70;1.00;;;;;;5094134;28;20587;-81
2023/05/31 11:21:51;;;;;;;2.37;0.70;;;35.80;1.00;;;;;;5094171;28;20413;-82
2023/05/31 11:24:44;;;;;;;2.57;0.73;;;36.00;1.00;;;;;;5094125;28;20406;-79
2023/05/31 11:27:13;;;;;;;2.07;0.67;;;36.20;1.00;;;;;;5093815;28;20398;-83
2023/05/31 11:29:44;;;;;;;3.13;0.63;;;36.00;1.00;;;;;;5094321;28;20466;-83
2023/05/31 11:32:20;;;;;;;3.03;1.10;;;36.20;1.00;;;;;;5093356;28;20407;-79
2023/05/31 11:34:49;;;;;;;1.97;0.93;;;36.40;1.00;;;;;;5094114;28;20422;-80
2023/05/31 11:37:15;;;;;;;3.10;0.80;;;36.30;1.00;;;;;;5094074;28;20410;-81
2023/05/31 11:39:44;;;;;;;3.53;0.63;;;36.30;1.00;;;;;;5093555;28;20417;-82
2023/05/31 11:42:10;;;;;;;3.43;0.83;;;36.10;1.00;;;;;;5091871;28;20176;-80
2023/05/31 11:44:42;;;;;;;4.43;1.17;;;35.90;1.00;;;;;;5092995;28;20824;-80
2023/05/31 11:47:10;;;;;;;3.93;1.10;;;35.70;1.00;;;;;;5074718;28;20533;-82
2023/05/31 11:49:35;;;;;;;3.93;1.07;;;35.40;1.00;;;;;;5092652;28;20462;-80
2023/05/31 11:52:03;;;;;;;1.40;0.73;;;35.20;1.00;;;;;;5093843;28;20413;-80
2023/05/31 11:54:30;;;;;;;0.83;0.43;;;35.30;1.00;;;;;;5093794;28;20275;-78
2023/05/31 11:56:59;;;;;;;1.37;0.60;;;35.40;1.00;;;;;;5093309;28;20505;-79
2023/05/31 11:59:27;;;;;;;1.00;0.43;;;35.60;1.00;;;;;;5093588;28;20816;-79
2023/05/31 12:01:57;;;;;;;2.63;0.70;;;35.60;1.00;;;;;;5093583;28;20403;-78
2023/05/31 12:04:28;;;;;;;1.77;0.60;;;35.50;1.00;;;;;;5093417;28;20418;-78
2023/05/31 12:06:54;;;;;;;1.30;0.40;;;35.70;1.00;;;;;;5093393;28;20410;-78
2023/05/31 12:09:26;;;;;;;1.20;0.40;;;35.60;1.00;;;;;;5092411;28;20515;-80
2023/05/31 12:11:52;;;;;;;1.50;0.50;;;35.60;1.00;;;;;;5074320;28;20504;-79
2023/05/31 12:14:18;;;;;;;1.37;0.50;;;35.60;1.00;;;;;;5092662;28;20425;-79
2023/05/31 12:16:44;;;;;;;0.97;0.40;;;35.60;1.00;;;;;;5093055;28;20404;-79
2023/05/31 12:19:12;;;;;;;3.97;1.30;;;35.50;1.00;;;;;;5093352;28;20171;-80
2023/05/31 12:21:38;;;;;;;0.93;0.60;;;35.30;1.00;;;;;;5093249;28;20418;-78
2023/05/31 12:24:17;;;;;;;2.10;0.63;;;35.40;1.00;;;;;;5093243;28;20421;-79
2023/05/31 12:26:44;;;;;;;1.73;0.67;;;35.40;1.00;;;;;;5092954;28;20529;-79
2023/05/31 12:29:13;;;;;;;2.97;0.93;;;35.30;1.00;;;;;;5093134;28;20450;-79
2023/05/31 12:31:39;;;;;;;2.40;0.60;;;35.20;1.00;;;;;;5093238;28;20419;-78
2023/05/31 12:34:04;;;;;;;2.93;0.70;;;35.00;1.00;;;;;;5093092;28;20409;-79
2023/05/31 12:36:45;;;;;;;2.37;0.70;;;35.10;1.00;;;;;;5089213;28;20497;-80
2023/05/31 12:39:24;;;;;;;1.40;0.50;;;35.20;1.00;;;;;;5078242;28;20701;-80
2023/05/31 12:41:50;;;;;;;1.40;0.40;;;35.30;1.00;;;;;;5072034;28;20885;-80
2023/05/31 12:44:19;;;;;;;3.93;0.90;;;35.30;1.00;;;;;;5072183;28;20474;-80
2023/05/31 12:46:45;;;;;;;1.33;0.40;;;35.30;1.00;;;;;;5072492;28;20419;-83
2023/05/31 12:49:24;;;;;;;2.40;0.70;;;35.40;1.00;;;;;;5072346;28;20479;-82
2023/05/31 12:52:06;;;;;;;3.90;1.50;;;35.60;1.00;;;;;;5072419;28;20411;-79
2023/05/31 12:54:34;;;;;;;1.90;0.40;;;35.60;1.00;;;;;;5072110;28;20504;-80